Cygnus — 9HA2105 — position and weather

sailwx.info

Track history (hours):
 
Tides and Currents Weather Stations Pressure Air Temp Water Temp Dewpoint Dewpoint Depression Visibility Wind Speed Wind Dir Waves Ship Positions

Cygnus

Last reported at 2016-May-17 08:06 UTC. Time now 2016-Jul-25 06:13 UTC.
Position N 49°55' W 003°55'.
Warning: this ship's position is months out of date.

Length 177 m; draft 10.1 m.

Type: Cargo ship. MMSI: 249963000.

Date/timePositionNaut miles runAvg speedWind from/ knotsBaromVisibWave heightAir tempDewpointWater temp
2016-May-17 08:06N 49°55' W 003°55'813.1
2016-May-17 07:31N 49°56' W 003°43'1212.7
2016-May-17 06:33N 49°57' W 003°24'1212.4
2016-May-17 05:33N 49°59' W 003°05'1211.8
2016-May-17 04:30N 50°02' W 002°46'9413.2
2016-May-16 21:22N 50°27' W 000°25'1113.2
2016-May-16 20:33N 50°30' W 000°09'1212.2
2016-May-16 19:33N 50°34' E 000°10'5112.4
2016-May-16 15:26N 50°60' E 001°19'1315.4
2016-May-16 14:33N 51°08' E 001°36'1414.2
2016-May-16 13:34N 51°19' E 001°51'1312.9
2016-May-16 12:33N 51°30' E 002°02'1312.2
2016-May-16 11:28N 51°40' E 002°16'17012.2
2016-May-15 21:32N 54°00' E 004°55'1513.0
2016-May-15 20:25N 54°14' E 005°04'28411.8
2016-May-14 20:25N 57°44' E 010°45'14 2.3
2016-May-14 14:31N 57°35' E 011°03'1212.5
2016-May-14 13:33N 57°29' E 011°23'1111.5
2016-May-14 12:33N 57°18' E 011°32'1211.6
2016-May-14 11:33N 57°08' E 011°39'1211.7
2016-May-14 10:33N 56°57' E 011°46'1211.8
2016-May-14 09:33N 56°45' E 011°53'9410.2
2016-May-14 00:21N 55°16' E 011°05'1010.9
2016-May-13 23:26N 55°06' E 011°02'1011.5
2016-May-13 22:33N 54°57' E 010°55'1111.1
2016-May-13 21:33N 54°46' E 010°49'9 8.7
2016-May-13 20:33N 54°38' E 010°54'1211.8
2016-May-13 19:33N 54°35' E 011°14'1212.4
2016-May-13 18:33N 54°30' E 011°34'1211.7
2016-May-13 17:33N 54°27' E 011°53'5811.5
2016-May-13 12:30N 54°55' E 013°20'1213.0
2016-May-13 11:33N 54°59' E 013°41'1313.0
2016-May-13 10:33N 55°04' E 014°02'1312.9
2016-May-13 09:33N 55°13' E 014°17'1313.4
2016-May-13 08:33N 55°24' E 014°32'1313.1
2016-May-13 07:33N 55°31' E 014°50'1313.3
2016-May-13 06:33N 55°38' E 015°11'1313.4
2016-May-13 05:33N 55°45' E 015°31'1313.5
2016-May-13 04:33N 55°51' E 015°52'  
Track history (hours):
 
Tides and Currents Weather Stations Pressure Air Temp Water Temp Dewpoint Dewpoint Depression Visibility Wind Speed Wind Dir Waves Ship Positions

Cygnus

Last reported at 2016-May-17 08:06 UTC. Time now 2016-Jul-25 06:13 UTC.
Position N 49°55' W 003°55'.
Warning: this ship's position is months out of date.

Length 177 m; draft 10.1 m.

Type: Cargo ship. MMSI: 249963000.

Date/timePositionNaut miles runAvg speedWind from/ knotsBaromVisibWave heightAir tempDewpointWater temp
2016-May-17 08:06N 49°55' W 003°55'813.1
2016-May-17 07:31N 49°56' W 003°43'1212.7
2016-May-17 06:33N 49°57' W 003°24'1212.4
2016-May-17 05:33N 49°59' W 003°05'1211.8
2016-May-17 04:30N 50°02' W 002°46'9413.2
2016-May-16 21:22N 50°27' W 000°25'1113.2
2016-May-16 20:33N 50°30' W 000°09'1212.2
2016-May-16 19:33N 50°34' E 000°10'5112.4
2016-May-16 15:26N 50°60' E 001°19'1315.4
2016-May-16 14:33N 51°08' E 001°36'1414.2
2016-May-16 13:34N 51°19' E 001°51'1312.9
2016-May-16 12:33N 51°30' E 002°02'1312.2
2016-May-16 11:28N 51°40' E 002°16'17012.2
2016-May-15 21:32N 54°00' E 004°55'1513.0
2016-May-15 20:25N 54°14' E 005°04'28411.8
2016-May-14 20:25N 57°44' E 010°45'14 2.3
2016-May-14 14:31N 57°35' E 011°03'1212.5
2016-May-14 13:33N 57°29' E 011°23'1111.5
2016-May-14 12:33N 57°18' E 011°32'1211.6
2016-May-14 11:33N 57°08' E 011°39'1211.7
2016-May-14 10:33N 56°57' E 011°46'1211.8
2016-May-14 09:33N 56°45' E 011°53'9410.2
2016-May-14 00:21N 55°16' E 011°05'1010.9
2016-May-13 23:26N 55°06' E 011°02'1011.5
2016-May-13 22:33N 54°57' E 010°55'1111.1
2016-May-13 21:33N 54°46' E 010°49'9 8.7
2016-May-13 20:33N 54°38' E 010°54'1211.8
2016-May-13 19:33N 54°35' E 011°14'1212.4
2016-May-13 18:33N 54°30' E 011°34'1211.7
2016-May-13 17:33N 54°27' E 011°53'5811.5
2016-May-13 12:30N 54°55' E 013°20'1213.0
2016-May-13 11:33N 54°59' E 013°41'1313.0
2016-May-13 10:33N 55°04' E 014°02'1312.9
2016-May-13 09:33N 55°13' E 014°17'1313.4
2016-May-13 08:33N 55°24' E 014°32'1313.1
2016-May-13 07:33N 55°31' E 014°50'1313.3
2016-May-13 06:33N 55°38' E 015°11'1313.4
2016-May-13 05:33N 55°45' E 015°31'1313.5
2016-May-13 04:33N 55°51' E 015°52'  

Dump ship's entire track history